createdAt,value
2022-08-25T00:01:47.834Z,93.80
2022-08-25T00:04:16.118Z,94.70
2022-08-25T00:06:48.482Z,99.90
2022-08-25T00:09:18.038Z,99.90
2022-08-25T00:11:49.259Z,99.90
2022-08-25T00:14:28.660Z,99.90
2022-08-25T00:16:56.215Z,99.90
2022-08-25T00:19:27.543Z,98.50
2022-08-25T00:21:56.028Z,98.10
2022-08-25T00:24:24.510Z,98.00
2022-08-25T00:26:54.947Z,98.40
2022-08-25T00:29:22.889Z,97.20
2022-08-25T00:31:49.661Z,99.60
2022-08-25T00:34:30.273Z,99.90
2022-08-25T00:36:57.236Z,99.90
2022-08-25T00:39:24.914Z,99.90
2022-08-25T00:41:56.567Z,99.90
2022-08-25T00:44:27.211Z,99.90
2022-08-25T00:46:58.711Z,99.90
2022-08-25T00:49:44.745Z,99.90
2022-08-25T00:54:56.230Z,99.00
2022-08-25T00:57:54.347Z,99.80
2022-08-25T01:00:23.826Z,99.90
2022-08-25T01:02:50.757Z,99.90
2022-08-25T01:05:19.278Z,99.90
2022-08-25T01:07:50.193Z,99.90
2022-08-25T01:10:19.068Z,99.90
2022-08-25T01:12:52.723Z,99.90
2022-08-25T01:15:21.670Z,96.30
2022-08-25T01:17:57.622Z,96.40
2022-08-25T01:20:31.230Z,96.60
2022-08-25T01:22:59.411Z,96.60
2022-08-25T01:26:05.928Z,96.80
2022-08-25T01:28:32.779Z,97.10
2022-08-25T01:31:00.203Z,97.00
2022-08-25T01:33:27.044Z,97.40
2022-08-25T01:35:56.726Z,97.50
2022-08-25T01:38:26.147Z,97.50
2022-08-25T01:40:53.034Z,97.80
2022-08-25T01:43:35.854Z,97.70
2022-08-25T01:46:02.725Z,98.00
2022-08-25T01:48:29.712Z,98.00
2022-08-25T01:50:56.453Z,98.20
2022-08-25T01:53:28.484Z,98.20
2022-08-25T01:56:01.912Z,98.30
2022-08-25T01:58:32.486Z,98.40
2022-08-25T02:01:04.644Z,98.40
2022-08-25T02:03:31.660Z,98.70
2022-08-25T02:06:04.187Z,98.80
2022-08-25T02:08:34.131Z,98.90
2022-08-25T02:11:01.197Z,99.10
2022-08-25T02:13:31.655Z,99.10
2022-08-25T02:16:00.979Z,99.10
2022-08-25T02:18:27.733Z,99.10
2022-08-25T02:20:54.532Z,99.40
2022-08-25T02:23:21.473Z,99.50
2022-08-25T02:25:48.190Z,99.70
2022-08-25T02:28:15.023Z,99.70
2022-08-25T02:30:42.738Z,99.90
2022-08-25T02:33:10.124Z,99.90
2022-08-25T02:35:37.355Z,99.90
2022-08-25T02:38:05.019Z,99.90
2022-08-25T02:40:31.988Z,99.90
2022-08-25T02:42:58.701Z,99.90
2022-08-25T02:45:25.495Z,99.90
2022-08-25T02:47:52.730Z,99.90
2022-08-25T02:50:19.594Z,99.90
2022-08-25T02:52:50.476Z,99.90
2022-08-25T02:55:18.754Z,99.90
2022-08-25T02:57:45.507Z,99.90
2022-08-25T03:00:16.771Z,99.90
2022-08-25T03:02:44.661Z,99.90
2022-08-25T03:05:14.129Z,99.90
2022-08-25T03:07:41.520Z,99.90
2022-08-25T03:12:41.494Z,99.90
2022-08-25T03:15:13.163Z,99.90
2022-08-25T03:17:45.474Z,99.90
2022-08-25T03:20:15.470Z,99.90
2022-08-25T03:22:42.662Z,99.90
2022-08-25T03:25:28.882Z,99.90
2022-08-25T03:27:55.646Z,99.90
2022-08-25T03:30:22.426Z,99.90
2022-08-25T03:32:49.226Z,99.90
2022-08-25T03:35:16.024Z,99.90
2022-08-25T03:37:47.648Z,99.90
2022-08-25T03:40:19.437Z,99.90
2022-08-25T03:42:46.742Z,99.90
2022-08-25T03:45:16.443Z,99.90
2022-08-25T03:47:49.478Z,99.90
2022-08-25T03:50:19.200Z,99.90
2022-08-25T03:52:51.558Z,99.90
2022-08-25T03:55:20.852Z,99.90
2022-08-25T03:57:47.678Z,99.90
2022-08-25T04:00:17.132Z,99.90
2022-08-25T04:02:43.864Z,99.90
2022-08-25T04:05:13.104Z,99.90
2022-08-25T04:07:42.663Z,99.90
2022-08-25T04:10:10.595Z,99.90
2022-08-25T04:12:37.649Z,99.90
2022-08-25T04:15:06.198Z,99.90
2022-08-25T04:17:32.965Z,99.90
2022-08-25T04:20:01.774Z,99.90
2022-08-25T04:22:28.860Z,99.90
2022-08-25T04:24:58.207Z,99.90
2022-08-25T04:27:25.042Z,99.90
2022-08-25T04:29:54.716Z,99.90
2022-08-25T04:32:21.593Z,99.90
2022-08-25T04:34:49.167Z,99.90
2022-08-25T04:37:18.190Z,99.90
2022-08-25T04:39:47.201Z,99.90
2022-08-25T04:42:13.941Z,99.90
2022-08-25T04:44:41.690Z,99.90
2022-08-25T04:47:11.031Z,99.90
2022-08-25T04:49:37.793Z,99.90
2022-08-25T04:52:04.737Z,99.90
2022-08-25T04:54:40.366Z,99.90
2022-08-25T04:57:07.115Z,99.90
2022-08-25T04:59:33.861Z,99.90
2022-08-25T05:02:03.200Z,99.90
2022-08-25T05:04:31.119Z,99.90
2022-08-25T05:06:58.695Z,99.90
2022-08-25T05:09:28.491Z,99.90
2022-08-25T05:11:59.201Z,99.90
2022-08-25T05:14:28.403Z,99.90
2022-08-25T05:16:58.585Z,99.90
2022-08-25T05:19:28.211Z,99.90
2022-08-25T05:21:57.924Z,99.90
2022-08-25T05:24:25.521Z,99.90
2022-08-25T05:26:52.267Z,99.90
2022-08-25T05:31:51.161Z,99.90
2022-08-25T05:34:18.979Z,99.90
2022-08-25T05:36:46.237Z,99.90
2022-08-25T05:39:17.926Z,99.90
2022-08-25T05:41:44.664Z,99.90
2022-08-25T05:44:12.682Z,99.90
2022-08-25T05:46:39.521Z,99.90
2022-08-25T05:49:06.596Z,99.90
2022-08-25T05:51:34.041Z,99.90
2022-08-25T05:54:00.899Z,99.90
2022-08-25T05:56:27.640Z,99.90
2022-08-25T05:58:54.389Z,99.90
2022-08-25T06:01:46.456Z,99.90
2022-08-25T06:04:17.913Z,99.90
2022-08-25T06:06:44.853Z,99.90
2022-08-25T06:09:14.274Z,99.90
2022-08-25T06:11:41.417Z,99.90
2022-08-25T06:14:10.270Z,99.90
2022-08-25T06:16:40.472Z,99.90
2022-08-25T06:19:09.088Z,99.90
2022-08-25T06:21:39.008Z,99.90
2022-08-25T06:24:15.167Z,99.90
2022-08-25T06:26:42.296Z,99.90
2022-08-25T06:29:09.024Z,99.90
2022-08-25T06:31:35.940Z,99.90
2022-08-25T06:34:06.075Z,99.90
2022-08-25T06:36:33.235Z,99.90
2022-08-25T06:39:07.000Z,99.90
2022-08-25T06:41:36.689Z,99.90
2022-08-25T06:44:05.540Z,99.90
2022-08-25T06:46:36.503Z,99.90
2022-08-25T06:49:10.077Z,99.90
2022-08-25T06:51:36.867Z,99.90
2022-08-25T06:54:06.976Z,99.90
2022-08-25T06:56:34.454Z,99.90
2022-08-25T06:59:03.124Z,99.90
2022-08-25T07:01:31.807Z,99.90
2022-08-25T07:06:29.446Z,99.90
2022-08-25T07:08:59.054Z,99.90
2022-08-25T07:21:21.702Z,99.90
2022-08-25T07:29:10.226Z,98.40
2022-08-25T07:31:37.436Z,98.60
2022-08-25T07:34:23.327Z,98.70
2022-08-25T07:36:50.102Z,98.50
2022-08-25T07:39:21.897Z,98.20
2022-08-25T07:41:52.232Z,98.30
2022-08-25T07:44:22.932Z,97.80
2022-08-25T07:47:05.259Z,97.90
2022-08-25T07:49:35.926Z,97.60
2022-08-25T07:52:09.026Z,97.70
2022-08-25T07:54:37.876Z,99.60
2022-08-25T07:59:39.717Z,97.20
2022-08-25T08:02:09.309Z,97.20
2022-08-25T08:04:45.362Z,97.20
2022-08-25T08:07:12.498Z,97.20
2022-08-25T08:09:39.231Z,99.10
2022-08-25T08:12:08.889Z,99.90
2022-08-25T08:14:35.689Z,99.90
2022-08-25T08:17:10.713Z,99.90
2022-08-25T08:19:39.859Z,96.70
2022-08-25T08:22:11.581Z,99.90
2022-08-25T08:24:44.864Z,99.90
2022-08-25T08:29:54.338Z,95.90
2022-08-25T08:32:23.154Z,95.80
2022-08-25T08:35:00.643Z,95.70
2022-08-25T08:37:28.064Z,95.70
2022-08-25T08:43:03.969Z,95.10
2022-08-25T08:45:40.281Z,95.20
2022-08-25T08:48:25.623Z,94.90
2022-08-25T08:51:09.741Z,95.00
2022-08-25T08:53:57.225Z,94.60
2022-08-25T08:56:30.674Z,94.90
2022-08-25T08:59:13.838Z,94.50
2022-08-25T09:02:14.467Z,94.50
2022-08-25T09:05:09.445Z,94.50
2022-08-25T09:07:48.344Z,94.20
2022-08-25T09:10:21.648Z,93.80
2022-08-25T09:13:15.509Z,94.20
2022-08-25T09:16:20.597Z,93.10
2022-08-25T09:19:33.047Z,93.60
2022-08-25T09:22:35.813Z,93.20
2022-08-25T09:25:29.472Z,92.90
2022-08-25T09:28:27.722Z,93.00
2022-08-25T09:31:16.257Z,92.30
2022-08-25T09:33:47.710Z,95.80
2022-08-25T09:36:16.895Z,96.70
2022-08-25T09:38:46.701Z,96.80
2022-08-25T09:43:56.436Z,99.90
2022-08-25T09:46:30.109Z,97.50
2022-08-25T09:51:29.246Z,90.80
2022-08-25T09:53:59.995Z,91.30
2022-08-25T09:56:31.236Z,90.50
2022-08-25T09:59:34.984Z,90.20
2022-08-25T10:02:25.811Z,90.10
2022-08-25T10:04:55.745Z,90.20
2022-08-25T10:07:51.941Z,89.90
2022-08-25T10:10:32.967Z,89.10
2022-08-25T10:13:03.516Z,94.10
2022-08-25T10:15:35.348Z,90.40
2022-08-25T10:18:21.032Z,90.20
2022-08-25T10:21:07.517Z,89.70
2022-08-25T10:23:38.756Z,88.80
2022-08-25T10:26:18.245Z,87.30
2022-08-25T10:28:59.143Z,85.50
2022-08-25T10:31:35.812Z,86.90
2022-08-25T10:34:20.806Z,85.20
2022-08-25T10:36:57.538Z,85.70
2022-08-25T10:39:40.773Z,85.60
2022-08-25T10:42:32.318Z,84.70
2022-08-25T10:45:43.667Z,85.90
2022-08-25T10:48:29.397Z,84.70
2022-08-25T10:51:03.326Z,84.80
2022-08-25T10:53:39.184Z,82.90
2022-08-25T10:56:15.035Z,84.90
2022-08-25T10:59:04.617Z,82.60
2022-08-25T11:02:05.396Z,82.80
2022-08-25T11:04:45.084Z,82.90
2022-08-25T11:07:33.386Z,83.30
2022-08-25T11:10:13.624Z,85.80
2022-08-25T11:12:58.091Z,82.10
2022-08-25T11:16:15.441Z,80.80
2022-08-25T11:18:49.304Z,87.80
2022-08-25T11:21:34.800Z,87.60
2022-08-25T11:24:14.712Z,89.20
2022-08-25T11:26:43.574Z,89.20
2022-08-25T11:29:16.010Z,88.60
2022-08-25T11:31:50.754Z,88.50
2022-08-25T11:34:21.538Z,86.60
2022-08-25T11:37:01.271Z,82.90
2022-08-25T11:39:40.295Z,81.30
2022-08-25T11:42:31.226Z,86.70
2022-08-25T11:45:43.624Z,85.00
2022-08-25T11:48:30.499Z,81.40
2022-08-25T11:51:07.847Z,81.30
2022-08-25T11:58:51.594Z,97.60
2022-08-25T12:01:43.506Z,93.70
2022-08-25T12:04:34.155Z,93.00
2022-08-25T12:07:14.587Z,93.10
2022-08-25T12:09:50.446Z,93.30
2022-08-25T12:12:39.748Z,93.40
2022-08-25T12:16:01.593Z,92.70
2022-08-25T12:18:32.619Z,92.20
2022-08-25T12:21:02.507Z,94.70
2022-08-25T12:23:29.974Z,96.40
2022-08-25T12:26:04.013Z,95.80
2022-08-25T12:29:02.451Z,96.10
2022-08-25T12:31:53.943Z,95.70
2022-08-25T12:34:38.267Z,95.70
2022-08-25T12:37:16.959Z,95.10
2022-08-25T12:39:46.311Z,95.40
2022-08-25T12:42:29.768Z,95.30
2022-08-25T12:45:14.918Z,95.00
2022-08-25T12:47:47.545Z,96.10
2022-08-25T12:50:29.350Z,99.00
2022-08-25T12:53:09.281Z,97.60
2022-08-25T12:55:41.743Z,93.70
2022-08-25T12:58:12.063Z,90.70
2022-08-25T13:00:59.083Z,89.70
2022-08-25T13:03:27.614Z,87.80
2022-08-25T13:06:22.016Z,86.80
2022-08-25T13:09:08.418Z,85.70
2022-08-25T13:11:46.394Z,85.70
2022-08-25T13:14:28.430Z,89.80
2022-08-25T13:16:57.610Z,88.90
2022-08-25T13:19:26.606Z,87.70
2022-08-25T13:21:54.591Z,86.50
2022-08-25T13:24:23.870Z,85.50
2022-08-25T13:26:59.269Z,85.10
2022-08-25T13:29:29.395Z,83.10
2022-08-25T13:32:09.211Z,82.00
2022-08-25T13:34:43.184Z,81.60
2022-08-25T13:37:31.283Z,81.00
2022-08-25T13:40:17.780Z,80.40
2022-08-25T13:42:54.681Z,83.10
2022-08-25T13:45:28.430Z,94.70
2022-08-25T13:47:57.001Z,92.50
2022-08-25T13:50:29.360Z,93.40
2022-08-25T13:53:00.006Z,79.10
2022-08-25T13:55:38.215Z,93.20
2022-08-25T13:58:45.419Z,91.50
2022-08-25T14:01:48.312Z,91.10
2022-08-25T14:04:21.327Z,91.00
2022-08-25T14:06:49.114Z,89.30
2022-08-25T14:09:18.668Z,88.50
2022-08-25T14:11:58.563Z,90.90
2022-08-25T14:14:25.256Z,90.90
2022-08-25T14:17:22.431Z,88.80
2022-08-25T14:19:57.277Z,88.00
2022-08-25T14:22:24.310Z,86.30
2022-08-25T14:24:53.582Z,84.80
2022-08-25T14:27:20.767Z,75.10
2022-08-25T14:29:51.005Z,78.00
2022-08-25T14:32:19.639Z,77.70
2022-08-25T14:34:49.603Z,84.90
2022-08-25T14:37:19.521Z,86.00
2022-08-25T14:39:46.682Z,85.00
2022-08-25T14:42:14.104Z,83.30
2022-08-25T16:02:20.593Z,94.30
2022-08-25T16:04:47.511Z,70.60
2022-08-25T16:07:14.435Z,82.40
2022-08-25T16:09:41.843Z,84.20
2022-08-25T16:12:10.896Z,83.80
2022-08-25T16:14:40.008Z,84.20
2022-08-25T16:17:07.016Z,84.30
2022-08-25T16:19:38.308Z,84.20
2022-08-25T16:22:08.970Z,83.80
2022-08-25T16:24:46.838Z,83.90
2022-08-25T16:27:16.337Z,85.40
2022-08-25T16:29:47.269Z,86.00
2022-08-25T16:32:16.562Z,86.20
2022-08-25T16:34:45.803Z,87.00
2022-08-25T16:37:14.374Z,87.10
2022-08-25T16:39:45.348Z,87.60
2022-08-25T16:42:12.382Z,88.30
2022-08-25T16:44:39.919Z,88.30
2022-08-25T16:47:08.941Z,89.20
2022-08-25T16:49:36.309Z,89.00
2022-08-25T16:52:24.632Z,88.90
2022-08-25T16:55:13.563Z,89.40
2022-08-25T16:57:43.625Z,89.70
2022-08-25T17:00:13.978Z,90.20
2022-08-25T17:02:42.214Z,90.30
2022-08-25T17:05:11.284Z,90.20
2022-08-25T17:07:38.559Z,90.70
2022-08-25T17:10:07.207Z,90.60
2022-08-25T17:12:39.548Z,91.10
2022-08-25T17:15:07.568Z,91.00
2022-08-25T17:17:39.046Z,91.40
2022-08-25T17:20:06.544Z,91.20
2022-08-25T17:32:31.395Z,99.70
2022-08-25T17:45:01.039Z,72.70
2022-08-25T17:47:28.068Z,73.00
2022-08-25T17:49:57.135Z,78.10
2022-08-25T17:52:26.100Z,77.70
2022-08-25T17:54:52.913Z,78.30
2022-08-25T17:57:20.940Z,78.50
2022-08-25T17:59:50.257Z,78.50
2022-08-25T18:02:16.910Z,79.00
2022-08-25T18:04:46.361Z,80.20
2022-08-25T18:07:13.807Z,77.50
2022-08-25T18:09:40.648Z,75.90
2022-08-25T18:12:08.276Z,76.40
2022-08-25T18:14:38.618Z,80.00
2022-08-25T18:17:05.624Z,78.60
2022-08-25T18:19:33.049Z,81.10
2022-08-25T18:22:04.209Z,81.30
2022-08-25T18:24:35.402Z,85.30
2022-08-25T18:27:04.933Z,85.10
2022-08-25T18:37:23.978Z,88.20
2022-08-25T18:40:09.370Z,77.00
2022-08-25T18:42:38.986Z,76.60
2022-08-25T18:45:09.334Z,80.10
2022-08-25T18:52:34.603Z,94.90
2022-08-25T18:55:04.109Z,95.70
2022-08-25T18:57:31.497Z,86.90
2022-08-25T19:02:28.830Z,80.50
2022-08-25T19:04:55.707Z,85.10
2022-08-25T19:07:23.171Z,86.40
2022-08-25T19:12:22.522Z,79.00
2022-08-25T19:14:52.082Z,79.50
2022-08-25T19:17:18.802Z,79.50
2022-08-25T19:19:53.983Z,81.00
2022-08-25T19:22:38.561Z,85.90
2022-08-25T19:25:08.029Z,87.60
2022-08-25T19:27:36.129Z,83.50
2022-08-25T19:30:06.617Z,83.00
2022-08-25T19:32:33.540Z,83.40
2022-08-25T19:37:29.560Z,82.70
2022-08-25T19:40:00.076Z,83.90
2022-08-25T19:42:36.771Z,85.00
2022-08-25T19:47:35.369Z,89.20
2022-08-25T19:50:02.186Z,87.10
2022-08-25T19:52:31.720Z,87.00
2022-08-25T19:55:03.770Z,87.20
2022-08-25T19:57:42.516Z,87.30
2022-08-25T20:00:18.136Z,87.40
2022-08-25T20:02:45.720Z,90.30
2022-08-25T20:05:14.047Z,95.20
2022-08-25T20:10:14.349Z,88.10
2022-08-25T20:12:41.401Z,88.80
2022-08-25T20:15:16.614Z,89.20
2022-08-25T20:17:43.688Z,89.50
2022-08-25T20:20:18.680Z,88.80
2022-08-25T20:22:46.327Z,89.30
2022-08-25T20:25:23.247Z,89.50
2022-08-25T20:27:53.648Z,89.50
2022-08-25T20:30:26.813Z,90.30
2022-08-25T20:32:55.824Z,92.40
2022-08-25T20:35:26.476Z,94.70
2022-08-25T20:38:00.369Z,99.90
2022-08-25T20:40:29.324Z,99.10
2022-08-25T20:42:58.501Z,94.90
2022-08-25T20:45:30.889Z,96.60
2022-08-25T20:48:00.207Z,99.00
2022-08-25T20:50:29.217Z,99.90
2022-08-25T20:52:58.233Z,99.90
2022-08-25T20:55:25.283Z,99.90
2022-08-25T20:57:53.427Z,99.90
2022-08-25T21:00:23.497Z,96.20
2022-08-25T21:02:52.243Z,93.70
2022-08-25T21:05:19.626Z,92.10
2022-08-25T21:07:46.445Z,92.20
2022-08-25T21:10:15.924Z,92.20
2022-08-25T21:12:45.190Z,92.50
2022-08-25T21:15:13.496Z,92.50
2022-08-25T21:17:48.460Z,92.70
2022-08-25T21:20:18.051Z,92.60
2022-08-25T21:22:44.777Z,92.90
2022-08-25T21:25:12.059Z,93.30
2022-08-25T21:27:41.404Z,94.00
2022-08-25T21:30:11.254Z,97.20
2022-08-25T21:32:40.646Z,97.40
2022-08-25T21:35:20.244Z,99.90
2022-08-25T21:37:47.039Z,99.90
2022-08-25T21:40:20.143Z,96.70
2022-08-25T21:42:49.445Z,99.70
2022-08-25T21:45:16.679Z,99.90
2022-08-25T21:50:24.794Z,98.90
2022-08-25T21:52:54.583Z,99.20
2022-08-25T21:55:21.690Z,99.50
2022-08-25T21:57:49.722Z,99.80
2022-08-25T22:00:21.417Z,99.90
2022-08-25T22:05:16.029Z,99.90
2022-08-25T22:07:45.518Z,99.90
2022-08-25T23:42:48.123Z,99.90
2022-08-25T23:45:19.973Z,99.90
2022-08-25T23:47:46.740Z,99.90
2022-08-25T23:50:16.482Z,99.90
2022-08-25T23:52:45.812Z,99.90
2022-08-25T23:55:12.613Z,99.90
2022-08-25T23:57:39.367Z,99.90
